sensor_id;sensor_type;location;lat;lon;timestamp;P1;durP1;ratioP1;P2;durP2;ratioP2
5650;SDS011;40241;52.684;9.758;2022-07-23T00:01:02;2.40;;;2.30;;
5650;SDS011;40241;52.684;9.758;2022-07-23T00:03:27;3.63;;;2.60;;
5650;SDS011;40241;52.684;9.758;2022-07-23T00:05:53;4.07;;;2.20;;
5650;SDS011;40241;52.684;9.758;2022-07-23T00:08:18;7.73;;;2.30;;
5650;SDS011;40241;52.684;9.758;2022-07-23T00:10:44;2.13;;;2.00;;
5650;SDS011;40241;52.684;9.758;2022-07-23T00:13:09;2.73;;;2.40;;
5650;SDS011;40241;52.684;9.758;2022-07-23T00:15:34;2.60;;;2.23;;
5650;SDS011;40241;52.684;9.758;2022-07-23T00:18:00;3.20;;;2.40;;
5650;SDS011;40241;52.684;9.758;2022-07-23T00:20:25;2.70;;;2.20;;
5650;SDS011;40241;52.684;9.758;2022-07-23T00:22:52;2.50;;;2.27;;
5650;SDS011;40241;52.684;9.758;2022-07-23T00:25:20;4.03;;;2.30;;
5650;SDS011;40241;52.684;9.758;2022-07-23T00:27:47;2.50;;;2.30;;
5650;SDS011;40241;52.684;9.758;2022-07-23T00:30:13;2.57;;;2.47;;
5650;SDS011;40241;52.684;9.758;2022-07-23T00:32:45;2.57;;;2.37;;
5650;SDS011;40241;52.684;9.758;2022-07-23T00:35:10;2.43;;;2.23;;
5650;SDS011;40241;52.684;9.758;2022-07-23T00:37:36;3.17;;;2.53;;
5650;SDS011;40241;52.684;9.758;2022-07-23T00:40:01;2.73;;;2.53;;
5650;SDS011;40241;52.684;9.758;2022-07-23T00:42:26;2.30;;;2.10;;
5650;SDS011;40241;52.684;9.758;2022-07-23T00:44:52;2.93;;;2.47;;
5650;SDS011;40241;52.684;9.758;2022-07-23T00:47:17;2.77;;;2.57;;
5650;SDS011;40241;52.684;9.758;2022-07-23T00:49:42;3.83;;;2.50;;
5650;SDS011;40241;52.684;9.758;2022-07-23T00:52:08;3.00;;;2.80;;
5650;SDS011;40241;52.684;9.758;2022-07-23T00:54:33;2.80;;;2.20;;
5650;SDS011;40241;52.684;9.758;2022-07-23T00:56:59;2.93;;;2.73;;
5650;SDS011;40241;52.684;9.758;2022-07-23T00:59:24;2.60;;;2.40;;
5650;SDS011;40241;52.684;9.758;2022-07-23T01:01:49;3.00;;;2.70;;
5650;SDS011;40241;52.684;9.758;2022-07-23T01:04:15;7.47;;;2.60;;
5650;SDS011;40241;52.684;9.758;2022-07-23T01:06:41;3.30;;;2.33;;
5650;SDS011;40241;52.684;9.758;2022-07-23T01:09:08;2.33;;;2.23;;
5650;SDS011;40241;52.684;9.758;2022-07-23T01:11:34;2.77;;;2.57;;
5650;SDS011;40241;52.684;9.758;2022-07-23T01:14:07;2.63;;;2.50;;
5650;SDS011;40241;52.684;9.758;2022-07-23T01:16:34;3.10;;;2.73;;
5650;SDS011;40241;52.684;9.758;2022-07-23T01:18:59;5.57;;;2.63;;
5650;SDS011;40241;52.684;9.758;2022-07-23T01:21:24;2.80;;;2.60;;
5650;SDS011;40241;52.684;9.758;2022-07-23T01:23:50;2.83;;;2.53;;
5650;SDS011;40241;52.684;9.758;2022-07-23T01:26:15;3.47;;;3.13;;
5650;SDS011;40241;52.684;9.758;2022-07-23T01:28:42;2.80;;;2.33;;
5650;SDS011;40241;52.684;9.758;2022-07-23T01:31:08;2.73;;;2.47;;
5650;SDS011;40241;52.684;9.758;2022-07-23T01:33:33;2.50;;;2.30;;
5650;SDS011;40241;52.684;9.758;2022-07-23T01:35:58;2.67;;;2.47;;
5650;SDS011;40241;52.684;9.758;2022-07-23T01:38:24;3.03;;;2.43;;
5650;SDS011;40241;52.684;9.758;2022-07-23T01:40:49;3.57;;;3.00;;
5650;SDS011;40241;52.684;9.758;2022-07-23T01:43:14;4.70;;;2.93;;
5650;SDS011;40241;52.684;9.758;2022-07-23T01:45:40;2.90;;;2.40;;
5650;SDS011;40241;52.684;9.758;2022-07-23T01:48:06;3.60;;;2.57;;
5650;SDS011;40241;52.684;9.758;2022-07-23T01:50:32;2.73;;;2.53;;
5650;SDS011;40241;52.684;9.758;2022-07-23T01:52:57;2.70;;;2.53;;
5650;SDS011;40241;52.684;9.758;2022-07-23T01:55:22;4.73;;;3.03;;
5650;SDS011;40241;52.684;9.758;2022-07-23T01:57:48;3.13;;;2.53;;
5650;SDS011;40241;52.684;9.758;2022-07-23T02:00:13;2.20;;;2.10;;
5650;SDS011;40241;52.684;9.758;2022-07-23T02:02:39;3.13;;;2.43;;
5650;SDS011;40241;52.684;9.758;2022-07-23T02:05:04;2.20;;;2.10;;
5650;SDS011;40241;52.684;9.758;2022-07-23T02:07:30;2.53;;;2.43;;
5650;SDS011;40241;52.684;9.758;2022-07-23T02:09:55;2.70;;;2.50;;
5650;SDS011;40241;52.684;9.758;2022-07-23T02:12:20;2.40;;;2.23;;
5650;SDS011;40241;52.684;9.758;2022-07-23T02:14:46;2.20;;;2.10;;
5650;SDS011;40241;52.684;9.758;2022-07-23T02:17:11;3.90;;;2.20;;
5650;SDS011;40241;52.684;9.758;2022-07-23T02:19:36;2.13;;;2.03;;
5650;SDS011;40241;52.684;9.758;2022-07-23T02:22:02;2.30;;;2.20;;
5650;SDS011;40241;52.684;9.758;2022-07-23T02:24:27;2.17;;;2.07;;
5650;SDS011;40241;52.684;9.758;2022-07-23T02:26:52;2.87;;;2.00;;
5650;SDS011;40241;52.684;9.758;2022-07-23T02:29:17;2.57;;;2.37;;
5650;SDS011;40241;52.684;9.758;2022-07-23T02:31:43;3.20;;;2.70;;
5650;SDS011;40241;52.684;9.758;2022-07-23T02:34:08;4.33;;;2.40;;
5650;SDS011;40241;52.684;9.758;2022-07-23T02:36:36;2.80;;;2.37;;
5650;SDS011;40241;52.684;9.758;2022-07-23T02:39:02;2.20;;;2.10;;
5650;SDS011;40241;52.684;9.758;2022-07-23T02:41:27;2.00;;;1.90;;
5650;SDS011;40241;52.684;9.758;2022-07-23T02:43:52;3.00;;;2.77;;
5650;SDS011;40241;52.684;9.758;2022-07-23T02:46:17;2.53;;;2.37;;
5650;SDS011;40241;52.684;9.758;2022-07-23T02:48:43;3.93;;;2.77;;
5650;SDS011;40241;52.684;9.758;2022-07-23T02:51:08;3.70;;;3.10;;
5650;SDS011;40241;52.684;9.758;2022-07-23T02:53:34;3.60;;;2.40;;
5650;SDS011;40241;52.684;9.758;2022-07-23T02:55:59;2.40;;;2.30;;
5650;SDS011;40241;52.684;9.758;2022-07-23T02:58:24;2.60;;;2.40;;
5650;SDS011;40241;52.684;9.758;2022-07-23T03:00:51;2.53;;;2.43;;
5650;SDS011;40241;52.684;9.758;2022-07-23T03:03:17;3.10;;;2.90;;
5650;SDS011;40241;52.684;9.758;2022-07-23T03:05:42;2.57;;;2.07;;
5650;SDS011;40241;52.684;9.758;2022-07-23T03:08:08;2.13;;;2.03;;
5650;SDS011;40241;52.684;9.758;2022-07-23T03:10:33;2.57;;;2.37;;
5650;SDS011;40241;52.684;9.758;2022-07-23T03:12:58;2.07;;;1.97;;
5650;SDS011;40241;52.684;9.758;2022-07-23T03:15:24;2.20;;;2.00;;
5650;SDS011;40241;52.684;9.758;2022-07-23T03:17:49;2.30;;;2.20;;
5650;SDS011;40241;52.684;9.758;2022-07-23T03:20:14;2.60;;;2.40;;
5650;SDS011;40241;52.684;9.758;2022-07-23T03:22:40;2.60;;;2.40;;
5650;SDS011;40241;52.684;9.758;2022-07-23T03:25:05;2.50;;;2.30;;
5650;SDS011;40241;52.684;9.758;2022-07-23T03:27:31;2.90;;;1.83;;
5650;SDS011;40241;52.684;9.758;2022-07-23T03:29:57;2.10;;;2.00;;
5650;SDS011;40241;52.684;9.758;2022-07-23T03:32:24;2.47;;;2.30;;
5650;SDS011;40241;52.684;9.758;2022-07-23T03:34:49;2.50;;;2.40;;
5650;SDS011;40241;52.684;9.758;2022-07-23T03:37:16;2.90;;;2.60;;
5650;SDS011;40241;52.684;9.758;2022-07-23T03:39:42;4.97;;;2.90;;
5650;SDS011;40241;52.684;9.758;2022-07-23T03:42:07;3.17;;;2.83;;
5650;SDS011;40241;52.684;9.758;2022-07-23T03:44:34;2.07;;;1.93;;
5650;SDS011;40241;52.684;9.758;2022-07-23T03:47:01;2.63;;;2.53;;
5650;SDS011;40241;52.684;9.758;2022-07-23T03:49:28;2.47;;;2.07;;
5650;SDS011;40241;52.684;9.758;2022-07-23T03:51:53;2.43;;;2.23;;
5650;SDS011;40241;52.684;9.758;2022-07-23T03:54:19;3.13;;;2.27;;
5650;SDS011;40241;52.684;9.758;2022-07-23T03:56:44;2.80;;;2.60;;
5650;SDS011;40241;52.684;9.758;2022-07-23T03:59:10;2.37;;;2.17;;
5650;SDS011;40241;52.684;9.758;2022-07-23T04:01:35;2.43;;;2.23;;
5650;SDS011;40241;52.684;9.758;2022-07-23T04:04:01;2.50;;;2.30;;
5650;SDS011;40241;52.684;9.758;2022-07-23T04:06:27;2.23;;;2.13;;
5650;SDS011;40241;52.684;9.758;2022-07-23T04:08:52;2.60;;;2.40;;
5650;SDS011;40241;52.684;9.758;2022-07-23T04:11:18;2.00;;;1.90;;
5650;SDS011;40241;52.684;9.758;2022-07-23T04:13:43;2.47;;;2.37;;
5650;SDS011;40241;52.684;9.758;2022-07-23T04:16:09;2.77;;;2.63;;
5650;SDS011;40241;52.684;9.758;2022-07-23T04:18:34;2.07;;;1.97;;
5650;SDS011;40241;52.684;9.758;2022-07-23T04:21:00;4.07;;;2.23;;
5650;SDS011;40241;52.684;9.758;2022-07-23T04:23:25;2.27;;;2.17;;
5650;SDS011;40241;52.684;9.758;2022-07-23T04:25:51;2.53;;;2.43;;
5650;SDS011;40241;52.684;9.758;2022-07-23T04:28:16;2.27;;;2.17;;
5650;SDS011;40241;52.684;9.758;2022-07-23T04:30:41;2.30;;;2.20;;
5650;SDS011;40241;52.684;9.758;2022-07-23T04:33:07;3.90;;;2.93;;
5650;SDS011;40241;52.684;9.758;2022-07-23T04:35:33;2.80;;;2.60;;
5650;SDS011;40241;52.684;9.758;2022-07-23T04:37:59;2.73;;;2.53;;
5650;SDS011;40241;52.684;9.758;2022-07-23T04:40:24;3.13;;;2.83;;
5650;SDS011;40241;52.684;9.758;2022-07-23T04:42:50;2.27;;;2.07;;
5650;SDS011;40241;52.684;9.758;2022-07-23T04:45:15;2.40;;;2.30;;
5650;SDS011;40241;52.684;9.758;2022-07-23T04:47:41;2.27;;;2.07;;
5650;SDS011;40241;52.684;9.758;2022-07-23T04:50:06;2.87;;;2.73;;
5650;SDS011;40241;52.684;9.758;2022-07-23T04:52:31;2.83;;;2.63;;
5650;SDS011;40241;52.684;9.758;2022-07-23T04:54:57;2.93;;;2.73;;
5650;SDS011;40241;52.684;9.758;2022-07-23T04:57:22;2.87;;;2.67;;
5650;SDS011;40241;52.684;9.758;2022-07-23T04:59:47;2.33;;;2.20;;
5650;SDS011;40241;52.684;9.758;2022-07-23T05:02:13;3.00;;;2.80;;
5650;SDS011;40241;52.684;9.758;2022-07-23T05:04:38;2.43;;;2.33;;
5650;SDS011;40241;52.684;9.758;2022-07-23T05:07:03;3.70;;;2.60;;
5650;SDS011;40241;52.684;9.758;2022-07-23T05:09:29;2.70;;;2.50;;
5650;SDS011;40241;52.684;9.758;2022-07-23T05:11:54;2.63;;;2.43;;
5650;SDS011;40241;52.684;9.758;2022-07-23T05:14:19;2.77;;;2.63;;
5650;SDS011;40241;52.684;9.758;2022-07-23T05:16:45;2.40;;;2.30;;
5650;SDS011;40241;52.684;9.758;2022-07-23T05:19:10;3.10;;;2.80;;
5650;SDS011;40241;52.684;9.758;2022-07-23T05:21:35;3.53;;;3.23;;
5650;SDS011;40241;52.684;9.758;2022-07-23T05:24:01;3.03;;;2.83;;
5650;SDS011;40241;52.684;9.758;2022-07-23T05:26:26;2.70;;;2.53;;
5650;SDS011;40241;52.684;9.758;2022-07-23T05:28:51;2.93;;;2.40;;
5650;SDS011;40241;52.684;9.758;2022-07-23T05:31:17;4.10;;;2.50;;
5650;SDS011;40241;52.684;9.758;2022-07-23T05:33:43;4.93;;;3.00;;
5650;SDS011;40241;52.684;9.758;2022-07-23T05:36:08;2.63;;;2.37;;
5650;SDS011;40241;52.684;9.758;2022-07-23T05:38:34;2.80;;;2.63;;
5650;SDS011;40241;52.684;9.758;2022-07-23T05:41:00;2.43;;;2.33;;
5650;SDS011;40241;52.684;9.758;2022-07-23T05:43:25;2.90;;;2.70;;
5650;SDS011;40241;52.684;9.758;2022-07-23T05:45:51;2.83;;;2.63;;
5650;SDS011;40241;52.684;9.758;2022-07-23T05:48:16;3.50;;;3.30;;
5650;SDS011;40241;52.684;9.758;2022-07-23T05:50:42;2.50;;;2.40;;
5650;SDS011;40241;52.684;9.758;2022-07-23T05:53:07;3.83;;;3.53;;
5650;SDS011;40241;52.684;9.758;2022-07-23T05:55:33;3.30;;;3.10;;
5650;SDS011;40241;52.684;9.758;2022-07-23T05:57:58;3.13;;;2.93;;
5650;SDS011;40241;52.684;9.758;2022-07-23T06:00:24;3.20;;;2.90;;
5650;SDS011;40241;52.684;9.758;2022-07-23T06:02:50;4.00;;;3.70;;
5650;SDS011;40241;52.684;9.758;2022-07-23T06:05:16;3.47;;;3.17;;
5650;SDS011;40241;52.684;9.758;2022-07-23T06:07:41;5.27;;;3.40;;
5650;SDS011;40241;52.684;9.758;2022-07-23T06:10:07;3.50;;;3.30;;
5650;SDS011;40241;52.684;9.758;2022-07-23T06:12:33;3.83;;;3.50;;
5650;SDS011;40241;52.684;9.758;2022-07-23T06:14:58;3.80;;;3.50;;
5650;SDS011;40241;52.684;9.758;2022-07-23T06:17:24;3.50;;;3.20;;
5650;SDS011;40241;52.684;9.758;2022-07-23T06:19:49;3.37;;;3.17;;
5650;SDS011;40241;52.684;9.758;2022-07-23T06:22:14;2.97;;;2.77;;
5650;SDS011;40241;52.684;9.758;2022-07-23T06:24:40;2.87;;;2.63;;
5650;SDS011;40241;52.684;9.758;2022-07-23T06:27:05;2.77;;;2.60;;
5650;SDS011;40241;52.684;9.758;2022-07-23T06:29:30;3.80;;;3.40;;
5650;SDS011;40241;52.684;9.758;2022-07-23T06:31:56;2.77;;;2.57;;
5650;SDS011;40241;52.684;9.758;2022-07-23T06:34:21;4.20;;;2.90;;
5650;SDS011;40241;52.684;9.758;2022-07-23T06:36:46;4.30;;;2.10;;
5650;SDS011;40241;52.684;9.758;2022-07-23T06:39:12;6.53;;;2.60;;
5650;SDS011;40241;52.684;9.758;2022-07-23T06:41:37;2.57;;;2.33;;
5650;SDS011;40241;52.684;9.758;2022-07-23T06:44:03;2.40;;;2.27;;
5650;SDS011;40241;52.684;9.758;2022-07-23T06:46:28;3.03;;;2.40;;
5650;SDS011;40241;52.684;9.758;2022-07-23T06:48:54;3.17;;;2.87;;
5650;SDS011;40241;52.684;9.758;2022-07-23T06:51:19;3.57;;;2.43;;
5650;SDS011;40241;52.684;9.758;2022-07-23T06:53:44;2.23;;;2.03;;
5650;SDS011;40241;52.684;9.758;2022-07-23T06:56:10;4.50;;;1.93;;
5650;SDS011;40241;52.684;9.758;2022-07-23T06:58:35;2.67;;;2.47;;
5650;SDS011;40241;52.684;9.758;2022-07-23T07:01:00;2.53;;;2.30;;
5650;SDS011;40241;52.684;9.758;2022-07-23T07:03:26;2.80;;;1.97;;
5650;SDS011;40241;52.684;9.758;2022-07-23T07:05:51;4.17;;;2.30;;
5650;SDS011;40241;52.684;9.758;2022-07-23T07:08:18;1.80;;;1.70;;
5650;SDS011;40241;52.684;9.758;2022-07-23T07:10:43;2.83;;;1.97;;
5650;SDS011;40241;52.684;9.758;2022-07-23T07:13:09;3.40;;;1.97;;
5650;SDS011;40241;52.684;9.758;2022-07-23T07:15:34;2.10;;;1.80;;
5650;SDS011;40241;52.684;9.758;2022-07-23T07:18:00;2.67;;;1.80;;
5650;SDS011;40241;52.684;9.758;2022-07-23T07:20:25;1.93;;;1.70;;
5650;SDS011;40241;52.684;9.758;2022-07-23T07:22:51;5.43;;;2.10;;
5650;SDS011;40241;52.684;9.758;2022-07-23T07:25:16;2.20;;;1.80;;
5650;SDS011;40241;52.684;9.758;2022-07-23T07:27:43;2.20;;;2.00;;
5650;SDS011;40241;52.684;9.758;2022-07-23T07:30:09;2.10;;;2.00;;
5650;SDS011;40241;52.684;9.758;2022-07-23T07:32:35;1.33;;;1.23;;
5650;SDS011;40241;52.684;9.758;2022-07-23T07:35:02;1.30;;;1.30;;
5650;SDS011;40241;52.684;9.758;2022-07-23T07:37:29;1.53;;;1.43;;
5650;SDS011;40241;52.684;9.758;2022-07-23T07:39:54;2.07;;;1.73;;
5650;SDS011;40241;52.684;9.758;2022-07-23T07:42:19;1.60;;;1.50;;
5650;SDS011;40241;52.684;9.758;2022-07-23T07:44:45;2.57;;;1.63;;
5650;SDS011;40241;52.684;9.758;2022-07-23T07:47:10;1.80;;;1.50;;
5650;SDS011;40241;52.684;9.758;2022-07-23T07:49:35;3.50;;;2.00;;
5650;SDS011;40241;52.684;9.758;2022-07-23T07:52:01;1.80;;;1.70;;
5650;SDS011;40241;52.684;9.758;2022-07-23T07:54:26;1.90;;;1.60;;
5650;SDS011;40241;52.684;9.758;2022-07-23T07:56:52;2.20;;;1.50;;
5650;SDS011;40241;52.684;9.758;2022-07-23T07:59:17;1.60;;;1.50;;
5650;SDS011;40241;52.684;9.758;2022-07-23T08:01:42;1.87;;;1.70;;
5650;SDS011;40241;52.684;9.758;2022-07-23T08:04:07;2.80;;;1.30;;
5650;SDS011;40241;52.684;9.758;2022-07-23T08:06:33;2.97;;;1.60;;
5650;SDS011;40241;52.684;9.758;2022-07-23T08:08:58;1.67;;;1.57;;
5650;SDS011;40241;52.684;9.758;2022-07-23T08:11:24;1.70;;;1.60;;
5650;SDS011;40241;52.684;9.758;2022-07-23T08:13:49;5.43;;;2.10;;
5650;SDS011;40241;52.684;9.758;2022-07-23T08:16:15;1.87;;;1.73;;
5650;SDS011;40241;52.684;9.758;2022-07-23T08:18:40;2.33;;;2.17;;
5650;SDS011;40241;52.684;9.758;2022-07-23T08:21:06;2.93;;;2.20;;
5650;SDS011;40241;52.684;9.758;2022-07-23T08:23:32;2.20;;;2.00;;
5650;SDS011;40241;52.684;9.758;2022-07-23T08:25:57;5.00;;;2.27;;
5650;SDS011;40241;52.684;9.758;2022-07-23T08:28:24;2.13;;;1.97;;
5650;SDS011;40241;52.684;9.758;2022-07-23T08:30:50;2.03;;;1.73;;
5650;SDS011;40241;52.684;9.758;2022-07-23T08:33:15;2.30;;;2.00;;
5650;SDS011;40241;52.684;9.758;2022-07-23T08:35:43;1.57;;;1.47;;
5650;SDS011;40241;52.684;9.758;2022-07-23T08:38:13;2.10;;;1.50;;
5650;SDS011;40241;52.684;9.758;2022-07-23T08:40:41;2.13;;;1.40;;
5650;SDS011;40241;52.684;9.758;2022-07-23T08:43:11;1.43;;;1.33;;
5650;SDS011;40241;52.684;9.758;2022-07-23T08:45:38;1.53;;;1.30;;
5650;SDS011;40241;52.684;9.758;2022-07-23T08:48:08;5.00;;;1.47;;
5650;SDS011;40241;52.684;9.758;2022-07-23T08:50:36;2.83;;;1.73;;
5650;SDS011;40241;52.684;9.758;2022-07-23T08:53:02;2.20;;;1.40;;
5650;SDS011;40241;52.684;9.758;2022-07-23T08:55:31;3.90;;;1.43;;
5650;SDS011;40241;52.684;9.758;2022-07-23T08:57:56;1.27;;;1.10;;
5650;SDS011;40241;52.684;9.758;2022-07-23T09:00:22;1.43;;;0.80;;
5650;SDS011;40241;52.684;9.758;2022-07-23T09:02:48;1.17;;;0.90;;
5650;SDS011;40241;52.684;9.758;2022-07-23T09:05:14;1.10;;;0.87;;
5650;SDS011;40241;52.684;9.758;2022-07-23T09:16:20;1.47;;;0.83;;
5650;SDS011;40241;52.684;9.758;2022-07-23T09:21:28;1.43;;;0.70;;
5650;SDS011;40241;52.684;9.758;2022-07-23T09:32:16;1.37;;;0.80;;
5650;SDS011;40241;52.684;9.758;2022-07-23T09:37:19;2.17;;;0.73;;
5650;SDS011;40241;52.684;9.758;2022-07-23T09:39:44;1.03;;;0.60;;
5650;SDS011;40241;52.684;9.758;2022-07-23T09:42:13;0.67;;;0.63;;
5650;SDS011;40241;52.684;9.758;2022-07-23T09:44:42;1.53;;;0.80;;
5650;SDS011;40241;52.684;9.758;2022-07-23T09:47:09;2.80;;;0.73;;
5650;SDS011;40241;52.684;9.758;2022-07-23T09:49:35;1.00;;;0.60;;
5650;SDS011;40241;52.684;9.758;2022-07-23T09:52:00;1.90;;;0.60;;
5650;SDS011;40241;52.684;9.758;2022-07-23T09:54:36;2.40;;;0.50;;
5650;SDS011;40241;52.684;9.758;2022-07-23T09:57:05;1.37;;;0.53;;
5650;SDS011;40241;52.684;9.758;2022-07-23T09:59:35;0.77;;;0.63;;
5650;SDS011;40241;52.684;9.758;2022-07-23T10:02:03;1.00;;;0.63;;
5650;SDS011;40241;52.684;9.758;2022-07-23T10:04:30;2.63;;;0.70;;
5650;SDS011;40241;52.684;9.758;2022-07-23T10:06:58;1.40;;;0.80;;
5650;SDS011;40241;52.684;9.758;2022-07-23T10:09:26;0.70;;;0.70;;
5650;SDS011;40241;52.684;9.758;2022-07-23T10:11:58;2.20;;;0.60;;
5650;SDS011;40241;52.684;9.758;2022-07-23T10:14:41;0.70;;;0.60;;
5650;SDS011;40241;52.684;9.758;2022-07-23T10:17:07;0.60;;;0.60;;
5650;SDS011;40241;52.684;9.758;2022-07-23T10:19:33;1.77;;;0.77;;
5650;SDS011;40241;52.684;9.758;2022-07-23T10:22:03;1.37;;;0.73;;
5650;SDS011;40241;52.684;9.758;2022-07-23T10:36:30;0.80;;;0.50;;
5650;SDS011;40241;52.684;9.758;2022-07-23T10:39:05;1.00;;;0.73;;
5650;SDS011;40241;52.684;9.758;2022-07-23T10:41:42;0.70;;;0.60;;
5650;SDS011;40241;52.684;9.758;2022-07-23T10:46:53;2.30;;;0.67;;
5650;SDS011;40241;52.684;9.758;2022-07-23T10:49:31;0.70;;;0.50;;
5650;SDS011;40241;52.684;9.758;2022-07-23T10:54:49;0.90;;;0.70;;
5650;SDS011;40241;52.684;9.758;2022-07-23T10:57:20;1.20;;;0.50;;
5650;SDS011;40241;52.684;9.758;2022-07-23T11:02:40;0.80;;;0.50;;
5650;SDS011;40241;52.684;9.758;2022-07-23T11:05:12;0.63;;;0.50;;
5650;SDS011;40241;52.684;9.758;2022-07-23T11:10:38;0.90;;;0.50;;
5650;SDS011;40241;52.684;9.758;2022-07-23T11:24:03;0.70;;;0.50;;
5650;SDS011;40241;52.684;9.758;2022-07-23T11:34:32;1.00;;;0.40;;
5650;SDS011;40241;52.684;9.758;2022-07-23T11:37:05;0.60;;;0.40;;
5650;SDS011;40241;52.684;9.758;2022-07-23T11:39:32;0.70;;;0.50;;
5650;SDS011;40241;52.684;9.758;2022-07-23T11:41:58;1.23;;;0.57;;
5650;SDS011;40241;52.684;9.758;2022-07-23T11:46:56;0.60;;;0.50;;
5650;SDS011;40241;52.684;9.758;2022-07-23T11:49:23;3.77;;;0.50;;
5650;SDS011;40241;52.684;9.758;2022-07-23T11:54:37;0.80;;;0.60;;
5650;SDS011;40241;52.684;9.758;2022-07-23T11:57:12;0.80;;;0.53;;
5650;SDS011;40241;52.684;9.758;2022-07-23T11:59:37;0.67;;;0.60;;
5650;SDS011;40241;52.684;9.758;2022-07-23T12:02:04;0.80;;;0.50;;
5650;SDS011;40241;52.684;9.758;2022-07-23T12:04:37;0.80;;;0.60;;
5650;SDS011;40241;52.684;9.758;2022-07-23T12:07:03;0.70;;;0.50;;
5650;SDS011;40241;52.684;9.758;2022-07-23T12:09:28;1.10;;;0.70;;
5650;SDS011;40241;52.684;9.758;2022-07-23T12:12:00;0.60;;;0.57;;
5650;SDS011;40241;52.684;9.758;2022-07-23T12:14:26;0.70;;;0.60;;
5650;SDS011;40241;52.684;9.758;2022-07-23T12:17:07;2.10;;;0.60;;
5650;SDS011;40241;52.684;9.758;2022-07-23T12:19:33;0.60;;;0.50;;
5650;SDS011;40241;52.684;9.758;2022-07-23T12:21:59;1.43;;;0.70;;
5650;SDS011;40241;52.684;9.758;2022-07-23T12:24:25;1.03;;;0.60;;
5650;SDS011;40241;52.684;9.758;2022-07-23T12:27:11;0.80;;;0.60;;
5650;SDS011;40241;52.684;9.758;2022-07-23T12:29:38;1.13;;;0.50;;
5650;SDS011;40241;52.684;9.758;2022-07-23T12:32:16;0.80;;;0.40;;
5650;SDS011;40241;52.684;9.758;2022-07-23T12:34:43;1.60;;;0.50;;
5650;SDS011;40241;52.684;9.758;2022-07-23T12:37:23;2.20;;;0.80;;
5650;SDS011;40241;52.684;9.758;2022-07-23T12:39:50;1.03;;;0.50;;
5650;SDS011;40241;52.684;9.758;2022-07-23T12:42:16;1.17;;;0.60;;
5650;SDS011;40241;52.684;9.758;2022-07-23T12:44:41;1.27;;;0.50;;
5650;SDS011;40241;52.684;9.758;2022-07-23T12:47:57;1.10;;;0.57;;
5650;SDS011;40241;52.684;9.758;2022-07-23T12:50:38;1.00;;;0.50;;
5650;SDS011;40241;52.684;9.758;2022-07-23T12:53:16;0.63;;;0.50;;
5650;SDS011;40241;52.684;9.758;2022-07-23T12:55:43;1.47;;;0.50;;
5650;SDS011;40241;52.684;9.758;2022-07-23T13:00:51;0.83;;;0.40;;
5650;SDS011;40241;52.684;9.758;2022-07-23T13:05:55;0.60;;;0.40;;
5650;SDS011;40241;52.684;9.758;2022-07-23T13:08:21;0.80;;;0.50;;
5650;SDS011;40241;52.684;9.758;2022-07-23T13:10:47;0.60;;;0.40;;
5650;SDS011;40241;52.684;9.758;2022-07-23T13:13:16;0.70;;;0.40;;
5650;SDS011;40241;52.684;9.758;2022-07-23T13:15:42;0.90;;;0.60;;
5650;SDS011;40241;52.684;9.758;2022-07-23T13:18:08;1.13;;;0.47;;
5650;SDS011;40241;52.684;9.758;2022-07-23T13:20:34;0.80;;;0.50;;
5650;SDS011;40241;52.684;9.758;2022-07-23T13:23:00;0.70;;;0.40;;
5650;SDS011;40241;52.684;9.758;2022-07-23T13:25:26;1.17;;;0.60;;
5650;SDS011;40241;52.684;9.758;2022-07-23T13:27:51;0.90;;;0.40;;
5650;SDS011;40241;52.684;9.758;2022-07-23T13:30:17;0.60;;;0.50;;
5650;SDS011;40241;52.684;9.758;2022-07-23T13:32:42;1.10;;;0.53;;
5650;SDS011;40241;52.684;9.758;2022-07-23T13:35:08;0.90;;;0.70;;
5650;SDS011;40241;52.684;9.758;2022-07-23T13:37:34;0.80;;;0.50;;
5650;SDS011;40241;52.684;9.758;2022-07-23T13:39:59;0.80;;;0.60;;
5650;SDS011;40241;52.684;9.758;2022-07-23T13:42:25;1.13;;;0.40;;
5650;SDS011;40241;52.684;9.758;2022-07-23T13:44:50;0.90;;;0.70;;
5650;SDS011;40241;52.684;9.758;2022-07-23T13:47:15;0.97;;;0.47;;
5650;SDS011;40241;52.684;9.758;2022-07-23T13:49:41;1.10;;;0.50;;
5650;SDS011;40241;52.684;9.758;2022-07-23T13:52:06;0.70;;;0.43;;
5650;SDS011;40241;52.684;9.758;2022-07-23T13:54:31;0.80;;;0.60;;
5650;SDS011;40241;52.684;9.758;2022-07-23T13:56:57;0.60;;;0.60;;
5650;SDS011;40241;52.684;9.758;2022-07-23T13:59:22;0.60;;;0.40;;
5650;SDS011;40241;52.684;9.758;2022-07-23T14:01:48;0.70;;;0.50;;
5650;SDS011;40241;52.684;9.758;2022-07-23T14:04:13;0.60;;;0.40;;
5650;SDS011;40241;52.684;9.758;2022-07-23T14:06:38;0.70;;;0.40;;
5650;SDS011;40241;52.684;9.758;2022-07-23T14:09:04;0.70;;;0.47;;
5650;SDS011;40241;52.684;9.758;2022-07-23T14:11:29;0.60;;;0.50;;
5650;SDS011;40241;52.684;9.758;2022-07-23T14:13:56;0.60;;;0.40;;
5650;SDS011;40241;52.684;9.758;2022-07-23T14:16:22;0.60;;;0.47;;
5650;SDS011;40241;52.684;9.758;2022-07-23T14:18:48;1.57;;;0.40;;
5650;SDS011;40241;52.684;9.758;2022-07-23T14:21:13;0.70;;;0.40;;
5650;SDS011;40241;52.684;9.758;2022-07-23T14:23:38;1.50;;;0.60;;
5650;SDS011;40241;52.684;9.758;2022-07-23T14:26:04;1.57;;;0.40;;
5650;SDS011;40241;52.684;9.758;2022-07-23T14:28:29;0.70;;;0.50;;
5650;SDS011;40241;52.684;9.758;2022-07-23T14:30:54;0.70;;;0.40;;
5650;SDS011;40241;52.684;9.758;2022-07-23T14:33:20;0.60;;;0.47;;
5650;SDS011;40241;52.684;9.758;2022-07-23T14:35:46;0.90;;;0.40;;
5650;SDS011;40241;52.684;9.758;2022-07-23T14:38:11;0.60;;;0.30;;
5650;SDS011;40241;52.684;9.758;2022-07-23T14:40:37;0.70;;;0.40;;
5650;SDS011;40241;52.684;9.758;2022-07-23T14:43:02;0.60;;;0.40;;
5650;SDS011;40241;52.684;9.758;2022-07-23T14:45:27;0.60;;;0.40;;
5650;SDS011;40241;52.684;9.758;2022-07-23T14:47:55;0.60;;;0.40;;
5650;SDS011;40241;52.684;9.758;2022-07-23T14:50:21;1.10;;;0.60;;
5650;SDS011;40241;52.684;9.758;2022-07-23T14:52:46;3.80;;;0.50;;
5650;SDS011;40241;52.684;9.758;2022-07-23T14:55:11;0.60;;;0.40;;
5650;SDS011;40241;52.684;9.758;2022-07-23T14:57:36;0.60;;;0.40;;
5650;SDS011;40241;52.684;9.758;2022-07-23T15:00:03;0.60;;;0.40;;
5650;SDS011;40241;52.684;9.758;2022-07-23T15:02:29;0.60;;;0.33;;
5650;SDS011;40241;52.684;9.758;2022-07-23T15:04:55;0.90;;;0.47;;
5650;SDS011;40241;52.684;9.758;2022-07-23T15:07:23;0.83;;;0.50;;
5650;SDS011;40241;52.684;9.758;2022-07-23T15:09:48;0.60;;;0.40;;
5650;SDS011;40241;52.684;9.758;2022-07-23T15:12:13;0.60;;;0.40;;
5650;SDS011;40241;52.684;9.758;2022-07-23T15:14:39;2.13;;;0.40;;
5650;SDS011;40241;52.684;9.758;2022-07-23T15:17:04;1.80;;;0.57;;
5650;SDS011;40241;52.684;9.758;2022-07-23T15:19:30;0.60;;;0.40;;
5650;SDS011;40241;52.684;9.758;2022-07-23T15:21:55;0.60;;;0.40;;
5650;SDS011;40241;52.684;9.758;2022-07-23T15:24:21;0.63;;;0.57;;
5650;SDS011;40241;52.684;9.758;2022-07-23T15:26:46;0.60;;;0.40;;
5650;SDS011;40241;52.684;9.758;2022-07-23T15:29:11;0.60;;;0.33;;
5650;SDS011;40241;52.684;9.758;2022-07-23T15:31:37;0.60;;;0.40;;
5650;SDS011;40241;52.684;9.758;2022-07-23T15:34:02;0.67;;;0.40;;
5650;SDS011;40241;52.684;9.758;2022-07-23T15:36:28;0.50;;;0.30;;
5650;SDS011;40241;52.684;9.758;2022-07-23T15:38:53;0.63;;;0.50;;
5650;SDS011;40241;52.684;9.758;2022-07-23T15:41:18;0.60;;;0.40;;
5650;SDS011;40241;52.684;9.758;2022-07-23T15:43:44;0.70;;;0.50;;
5650;SDS011;40241;52.684;9.758;2022-07-23T15:46:09;1.93;;;0.60;;
5650;SDS011;40241;52.684;9.758;2022-07-23T15:48:35;0.60;;;0.40;;
5650;SDS011;40241;52.684;9.758;2022-07-23T15:51:01;0.80;;;0.40;;
5650;SDS011;40241;52.684;9.758;2022-07-23T15:53:26;0.90;;;0.40;;
5650;SDS011;40241;52.684;9.758;2022-07-23T15:55:52;2.00;;;0.40;;
5650;SDS011;40241;52.684;9.758;2022-07-23T15:58:17;0.67;;;0.40;;
5650;SDS011;40241;52.684;9.758;2022-07-23T16:00:42;0.70;;;0.40;;
5650;SDS011;40241;52.684;9.758;2022-07-23T16:03:08;0.60;;;0.40;;
5650;SDS011;40241;52.684;9.758;2022-07-23T16:05:33;1.40;;;0.53;;
5650;SDS011;40241;52.684;9.758;2022-07-23T16:08:00;0.60;;;0.40;;
5650;SDS011;40241;52.684;9.758;2022-07-23T16:10:27;0.80;;;0.50;;